Time;durP1;ratioP1;P1;durP2;ratioP2;P2;SDS_P1;SDS_P2;PMS_P1;PMS_P2;Temp;Humidity;BMP_temperature;BMP_pressure;BME280_temperature;BME280_humidity;BME280_pressure;Samples;Min_cycle;Max_cycle;Signal;HPM_P1;HPM_P2
2023/05/02 00:01:57;;;;;;;52.40;27.45;;;11.40;99.90;;;;;;4995933;28;20048;-86
2023/05/02 00:04:23;;;;;;;52.67;25.20;;;11.40;99.90;;;;;;4995208;28;20561;-86
2023/05/02 00:06:51;;;;;;;52.63;26.60;;;11.40;99.90;;;;;;4995894;28;20120;-86
2023/05/02 00:09:17;;;;;;;46.88;24.08;;;11.40;99.90;;;;;;4989372;28;20113;-86
2023/05/02 00:11:42;;;;;;;50.15;26.65;;;11.30;99.90;;;;;;4998526;28;20576;-86
2023/05/02 00:14:08;;;;;;;44.30;24.25;;;11.30;99.90;;;;;;4989952;28;20019;-86
2023/05/02 00:16:33;;;;;;;47.72;24.25;;;11.30;99.90;;;;;;4984907;28;20029;-86
2023/05/02 00:18:59;;;;;;;48.25;23.50;;;11.30;99.90;;;;;;4993689;28;20032;-86
2023/05/02 00:21:24;;;;;;;50.97;24.65;;;11.30;99.90;;;;;;5010067;28;20073;-86
2023/05/02 00:23:50;;;;;;;49.08;24.60;;;11.30;99.90;;;;;;4991306;28;20553;-86
2023/05/02 00:26:16;;;;;;;52.17;26.52;;;11.30;99.90;;;;;;5017706;28;20034;-86
2023/05/02 00:28:41;;;;;;;49.47;24.15;;;11.30;99.90;;;;;;4994349;28;20425;-86
2023/05/02 00:31:07;;;;;;;42.40;22.40;;;11.30;99.90;;;;;;4994871;28;20022;-86
2023/05/02 00:33:32;;;;;;;40.25;22.20;;;11.20;99.90;;;;;;5014224;28;20511;-86
2023/05/02 00:35:58;;;;;;;42.95;23.40;;;11.20;99.90;;;;;;5011354;28;20537;-86
2023/05/02 00:38:23;;;;;;;42.95;23.95;;;11.10;99.90;;;;;;4994769;28;20048;-85
2023/05/02 00:40:52;;;;;;;48.83;25.40;;;11.00;99.90;;;;;;5012186;28;20052;-85
2023/05/02 00:43:19;;;;;;;46.72;24.05;;;11.00;99.90;;;;;;4995163;28;20022;-86
2023/05/02 00:45:45;;;;;;;49.65;25.85;;;10.90;99.90;;;;;;4991695;28;20065;-86
2023/05/02 00:48:11;;;;;;;47.47;26.30;;;10.90;99.90;;;;;;4976360;28;20030;-86
2023/05/02 00:50:39;;;;;;;53.00;26.85;;;10.90;99.90;;;;;;4992108;28;20033;-85
2023/05/02 00:53:05;;;;;;;47.15;25.00;;;10.90;99.90;;;;;;4994891;28;20042;-86
2023/05/02 00:55:32;;;;;;;48.22;25.83;;;10.80;99.90;;;;;;4994959;28;20489;-86
2023/05/02 00:57:59;;;;;;;49.83;25.90;;;10.80;99.90;;;;;;5010354;28;20050;-86
2023/05/02 01:00:32;;;;;;;46.88;24.15;;;10.80;99.90;;;;;;4990444;28;20076;-86
2023/05/02 01:03:10;;;;;;;46.88;25.15;;;10.90;99.90;;;;;;4990895;28;20041;-85
2023/05/02 01:05:49;;;;;;;42.92;23.48;;;10.90;99.90;;;;;;4989530;28;20030;-86
2023/05/02 01:08:54;;;;;;;47.58;24.77;;;10.90;99.90;;;;;;4994222;28;20577;-86
2023/05/02 01:11:37;;;;;;;45.95;24.30;;;10.90;99.90;;;;;;4979319;28;20486;-85
2023/05/02 01:14:07;;;;;;;40.95;24.30;;;10.90;99.90;;;;;;5002949;28;20032;-86
2023/05/02 01:16:39;;;;;;;50.50;24.08;;;10.80;99.90;;;;;;4999425;28;20093;-86
2023/05/02 01:19:09;;;;;;;40.00;22.77;;;10.90;99.90;;;;;;5007904;28;20057;-85
2023/05/02 01:21:36;;;;;;;49.00;24.33;;;10.90;99.90;;;;;;4995075;28;20042;-85
2023/05/02 01:24:13;;;;;;;39.88;20.70;;;10.90;99.90;;;;;;4994497;28;20052;-85
2023/05/02 01:27:13;;;;;;;43.70;23.40;;;10.90;99.90;;;;;;4972651;28;20054;-85
2023/05/02 01:29:40;;;;;;;39.95;22.00;;;10.90;99.90;;;;;;4982649;28;20549;-85
2023/05/02 01:32:07;;;;;;;35.92;20.35;;;10.80;99.90;;;;;;4983235;28;20054;-85
2023/05/02 01:34:37;;;;;;;42.25;23.52;;;10.80;99.90;;;;;;5004914;28;20030;-86
2023/05/02 01:37:04;;;;;;;43.38;22.02;;;10.80;99.90;;;;;;5011325;28;20029;-85
2023/05/02 01:39:31;;;;;;;37.35;22.08;;;10.90;99.90;;;;;;4999533;28;20385;-86
2023/05/02 01:41:58;;;;;;;40.40;23.25;;;10.80;99.90;;;;;;5010926;28;20034;-85
2023/05/02 01:44:25;;;;;;;38.97;22.33;;;10.80;99.90;;;;;;5002641;28;20418;-85
2023/05/02 01:46:53;;;;;;;42.13;22.50;;;10.90;99.90;;;;;;4992843;28;20121;-85
2023/05/02 01:49:22;;;;;;;39.97;21.80;;;10.90;99.90;;;;;;4992981;28;20029;-85
2023/05/02 01:51:49;;;;;;;38.05;22.48;;;10.90;99.90;;;;;;5008372;28;20381;-85
2023/05/02 01:54:16;;;;;;;37.55;21.10;;;10.90;99.90;;;;;;5008727;28;20101;-85
2023/05/02 01:56:42;;;;;;;33.72;19.95;;;10.90;99.90;;;;;;5012765;28;20121;-85
2023/05/02 01:59:11;;;;;;;37.65;20.98;;;10.90;99.90;;;;;;4998139;28;20115;-86
2023/05/02 02:01:38;;;;;;;35.85;19.00;;;10.90;99.90;;;;;;4989828;28;20124;-86
2023/05/02 02:04:06;;;;;;;35.60;20.80;;;10.90;99.90;;;;;;5000139;28;20493;-85
2023/05/02 02:06:31;;;;;;;36.30;20.80;;;10.90;99.90;;;;;;4998158;28;20026;-85
2023/05/02 02:08:57;;;;;;;38.63;20.27;;;10.90;99.90;;;;;;4996230;28;20030;-86
2023/05/02 02:11:28;;;;;;;34.15;19.88;;;10.90;99.90;;;;;;4997543;28;20022;-85
2023/05/02 02:14:05;;;;;;;33.30;18.88;;;10.90;99.90;;;;;;5015407;28;20033;-85
2023/05/02 02:16:36;;;;;;;38.95;19.88;;;10.90;99.90;;;;;;4990059;28;20034;-86
2023/05/02 02:19:09;;;;;;;39.50;18.25;;;10.90;99.90;;;;;;5002970;28;20022;-86
2023/05/02 02:21:35;;;;;;;38.70;18.20;;;10.90;99.90;;;;;;5009658;28;20042;-86
2023/05/02 02:24:02;;;;;;;28.27;15.82;;;10.90;99.90;;;;;;5014437;28;20109;-86
2023/05/02 02:26:28;;;;;;;27.85;15.98;;;10.90;99.90;;;;;;4994042;28;20121;-86
2023/05/02 02:28:55;;;;;;;28.60;15.43;;;10.90;99.90;;;;;;5011305;28;20076;-85
2023/05/02 02:31:20;;;;;;;25.40;14.18;;;10.90;99.90;;;;;;5020182;28;20132;-86
2023/05/02 02:33:47;;;;;;;31.60;14.13;;;10.90;99.90;;;;;;5006756;28;20061;-86
2023/05/02 02:36:25;;;;;;;21.55;11.48;;;10.90;99.90;;;;;;4995777;28;20448;-86
2023/05/02 02:39:02;;;;;;;21.92;9.32;;;10.90;99.90;;;;;;5007442;28;20102;-85
2023/05/02 02:41:35;;;;;;;13.82;6.05;;;10.90;99.90;;;;;;4988541;28;20072;-85
2023/05/02 02:44:10;;;;;;;13.55;4.57;;;10.90;99.90;;;;;;5014759;28;20057;-85
2023/05/02 02:47:42;;;;;;;10.98;3.70;;;10.80;99.90;;;;;;5000025;28;20032;-85
2023/05/02 02:50:31;;;;;;;7.65;2.60;;;10.70;99.90;;;;;;4942184;28;20043;-85
2023/05/02 02:53:08;;;;;;;8.10;2.47;;;10.60;99.90;;;;;;4938970;28;20023;-85
2023/05/02 02:55:46;;;;;;;8.88;2.17;;;10.50;99.90;;;;;;4997703;28;20038;-85
2023/05/02 02:58:47;;;;;;;9.57;2.33;;;10.50;99.90;;;;;;5002748;28;20099;-85
2023/05/02 03:01:19;;;;;;;8.30;2.35;;;10.50;99.90;;;;;;5012269;28;20084;-85
2023/05/02 03:03:47;;;;;;;10.80;2.53;;;10.40;99.90;;;;;;5000885;28;20025;-85
2023/05/02 03:06:12;;;;;;;6.88;1.80;;;10.40;99.90;;;;;;4996318;28;20533;-85
2023/05/02 03:08:43;;;;;;;5.93;2.15;;;10.40;99.90;;;;;;4996592;28;20119;-85
2023/05/02 03:11:08;;;;;;;7.18;2.10;;;10.40;99.90;;;;;;5012287;28;20034;-86
2023/05/02 03:13:35;;;;;;;9.85;2.75;;;10.30;99.90;;;;;;4989989;28;20033;-85
2023/05/02 03:16:22;;;;;;;12.88;2.55;;;10.30;99.90;;;;;;5012324;28;20539;-86
2023/05/02 03:18:47;;;;;;;7.82;2.20;;;10.40;99.90;;;;;;4983262;28;20072;-85
2023/05/02 03:21:13;;;;;;;10.23;2.20;;;10.40;99.90;;;;;;4995885;28;20045;-85
2023/05/02 03:23:39;;;;;;;8.85;2.17;;;10.40;99.90;;;;;;4989854;28;20072;-85
2023/05/02 03:26:05;;;;;;;9.85;2.33;;;10.40;99.90;;;;;;4995039;28;20029;-85
2023/05/02 03:28:30;;;;;;;9.05;2.00;;;10.40;99.90;;;;;;4994709;28;20050;-85
2023/05/02 03:30:56;;;;;;;6.93;1.67;;;10.30;99.90;;;;;;4996648;28;20026;-86
2023/05/02 03:33:22;;;;;;;11.90;2.15;;;10.30;99.90;;;;;;4995217;28;20076;-85
2023/05/02 03:35:48;;;;;;;8.63;1.25;;;10.30;99.90;;;;;;5016659;28;20036;-85
2023/05/02 03:38:13;;;;;;;9.75;1.40;;;10.30;99.90;;;;;;4995359;28;20018;-86
2023/05/02 03:40:38;;;;;;;4.28;1.00;;;10.30;99.90;;;;;;5009208;28;20375;-85
2023/05/02 03:43:04;;;;;;;10.40;1.75;;;10.30;99.90;;;;;;4983464;28;20068;-85
2023/05/02 03:45:30;;;;;;;4.55;0.80;;;10.30;99.90;;;;;;4996551;28;20065;-85
2023/05/02 03:47:55;;;;;;;7.25;1.10;;;10.30;99.90;;;;;;4995882;28;20468;-86
2023/05/02 03:50:22;;;;;;;8.50;1.65;;;10.30;99.90;;;;;;5012139;28;20037;-86
2023/05/02 03:52:47;;;;;;;5.07;0.98;;;10.30;99.90;;;;;;4999299;28;20049;-86
2023/05/02 03:55:13;;;;;;;6.68;0.93;;;10.20;99.90;;;;;;4995810;28;20041;-86
2023/05/02 03:57:38;;;;;;;6.22;0.90;;;10.20;99.90;;;;;;4992558;28;20077;-85
2023/05/02 04:00:05;;;;;;;11.30;1.00;;;10.10;99.90;;;;;;5004383;28;20053;-86
2023/05/02 04:02:31;;;;;;;7.43;0.75;;;10.10;99.90;;;;;;4975186;28;20042;-86
2023/05/02 04:04:56;;;;;;;5.13;1.15;;;10.00;99.90;;;;;;4977557;28;20458;-86
2023/05/02 04:07:24;;;;;;;7.75;0.90;;;10.00;99.90;;;;;;4993402;28;20117;-85
2023/05/02 04:09:50;;;;;;;8.38;0.90;;;9.90;99.90;;;;;;4979875;28;20629;-86
2023/05/02 04:12:16;;;;;;;4.78;1.20;;;9.90;99.90;;;;;;4990931;28;20042;-86
2023/05/02 04:14:41;;;;;;;6.80;0.90;;;9.90;99.90;;;;;;5006999;28;20026;-85
2023/05/02 04:17:07;;;;;;;4.60;0.70;;;9.80;99.90;;;;;;4967628;28;20052;-86
2023/05/02 04:19:33;;;;;;;4.45;0.70;;;9.80;99.90;;;;;;4992926;28;20124;-86
2023/05/02 04:22:00;;;;;;;5.97;0.70;;;9.80;99.90;;;;;;4986228;28;20035;-86
2023/05/02 04:24:26;;;;;;;4.82;0.90;;;9.70;99.90;;;;;;4991706;28;20045;-86
2023/05/02 04:26:51;;;;;;;6.05;0.95;;;9.70;99.90;;;;;;4972010;28;20471;-86
2023/05/02 04:29:17;;;;;;;5.90;0.95;;;9.60;99.90;;;;;;4971604;28;20029;-86
2023/05/02 04:31:43;;;;;;;5.15;0.70;;;9.60;99.90;;;;;;4974932;28;20048;-85
2023/05/02 04:34:08;;;;;;;5.78;0.60;;;9.50;99.90;;;;;;4966733;28;20021;-85
2023/05/02 04:36:34;;;;;;;5.15;0.77;;;9.50;99.90;;;;;;4993014;28;20037;-87
2023/05/02 04:38:59;;;;;;;5.85;1.40;;;9.50;99.90;;;;;;4966801;28;20018;-86
2023/05/02 04:41:25;;;;;;;5.85;0.85;;;9.50;99.90;;;;;;4987032;28;20539;-86
2023/05/02 04:43:51;;;;;;;7.07;0.70;;;9.50;99.90;;;;;;4998343;28;20030;-86
2023/05/02 04:46:17;;;;;;;7.80;0.80;;;9.60;99.90;;;;;;4991784;28;20072;-85
2023/05/02 04:48:43;;;;;;;5.68;0.60;;;9.60;99.90;;;;;;4995737;28;20033;-85
2023/05/02 04:51:09;;;;;;;12.45;1.17;;;9.60;99.90;;;;;;4994697;28;20027;-85
2023/05/02 04:53:35;;;;;;;8.32;1.50;;;9.70;99.90;;;;;;4966827;28;20030;-86
2023/05/02 04:56:01;;;;;;;9.35;0.70;;;9.80;99.90;;;;;;4989863;28;20030;-85
2023/05/02 04:58:26;;;;;;;9.75;1.10;;;9.80;99.90;;;;;;4984855;28;20058;-85
2023/05/02 05:00:53;;;;;;;8.38;0.90;;;9.80;99.90;;;;;;4966237;28;20490;-85
2023/05/02 05:03:19;;;;;;;6.05;0.80;;;9.90;99.90;;;;;;4984967;28;20097;-85
2023/05/02 05:05:45;;;;;;;10.35;1.00;;;9.90;99.90;;;;;;4977173;28;20058;-85
2023/05/02 05:08:10;;;;;;;7.00;0.82;;;9.90;99.90;;;;;;4994166;28;20102;-85
2023/05/02 05:10:36;;;;;;;9.55;1.10;;;9.90;99.90;;;;;;4984688;28;20022;-85
2023/05/02 05:13:03;;;;;;;5.78;0.70;;;9.90;99.90;;;;;;4978009;28;20073;-86
2023/05/02 05:15:28;;;;;;;5.95;0.75;;;10.00;99.90;;;;;;4991981;28;20113;-86
2023/05/02 05:17:54;;;;;;;7.25;1.10;;;10.00;99.90;;;;;;4990240;28;20113;-86
2023/05/02 05:20:19;;;;;;;7.13;0.93;;;10.00;99.90;;;;;;4975776;28;20023;-84
2023/05/02 05:22:45;;;;;;;6.43;0.82;;;10.00;99.90;;;;;;4979452;28;20403;-83
2023/05/02 05:25:11;;;;;;;8.15;0.90;;;10.00;99.90;;;;;;4978134;28;20026;-84
2023/05/02 05:27:36;;;;;;;8.40;0.80;;;10.10;99.90;;;;;;4979788;28;20414;-84
2023/05/02 05:30:07;;;;;;;10.82;1.98;;;10.10;99.90;;;;;;4995843;28;20025;-83
2023/05/02 05:32:33;;;;;;;6.20;0.80;;;10.20;99.90;;;;;;4994731;28;20034;-83
2023/05/02 05:34:59;;;;;;;8.35;0.80;;;10.20;99.90;;;;;;4979737;28;20022;-84
2023/05/02 05:37:24;;;;;;;8.80;0.93;;;10.20;99.90;;;;;;4979549;28;20026;-83
2023/05/02 05:39:50;;;;;;;8.05;0.70;;;10.20;99.90;;;;;;4979039;28;20014;-84
2023/05/02 05:42:15;;;;;;;12.98;0.98;;;10.20;99.90;;;;;;4978669;28;20125;-84
2023/05/02 05:44:41;;;;;;;12.93;0.80;;;10.10;99.90;;;;;;4995994;28;20023;-83
2023/05/02 05:47:06;;;;;;;8.77;1.00;;;10.10;99.90;;;;;;4986244;28;20046;-84
2023/05/02 05:49:35;;;;;;;11.18;1.50;;;10.10;99.90;;;;;;4978630;28;20031;-83
2023/05/02 05:52:01;;;;;;;13.95;0.80;;;10.10;99.90;;;;;;4980092;28;20039;-83
2023/05/02 05:54:27;;;;;;;6.63;0.80;;;10.00;99.90;;;;;;4979732;28;20081;-86
2023/05/02 05:56:53;;;;;;;9.02;1.02;;;10.00;99.90;;;;;;4991596;28;20034;-86
2023/05/02 05:59:19;;;;;;;5.28;0.80;;;10.10;99.90;;;;;;5008806;28;20038;-86
2023/05/02 06:01:44;;;;;;;5.25;0.93;;;10.10;99.90;;;;;;4991992;28;20034;-85
2023/05/02 06:04:10;;;;;;;8.60;0.88;;;10.00;99.90;;;;;;4998574;28;20026;-86
2023/05/02 06:06:36;;;;;;;6.53;0.90;;;10.00;99.90;;;;;;4996818;28;20026;-86
2023/05/02 06:09:02;;;;;;;4.38;0.60;;;10.00;99.90;;;;;;5010893;28;20475;-86
2023/05/02 06:11:27;;;;;;;9.02;0.98;;;9.90;99.90;;;;;;5009524;28;20021;-86
2023/05/02 06:13:53;;;;;;;7.28;0.82;;;10.00;99.90;;;;;;4997756;28;20073;-86
2023/05/02 06:16:19;;;;;;;9.05;0.77;;;10.00;99.90;;;;;;4995662;28;20606;-86
2023/05/02 06:18:45;;;;;;;7.47;0.70;;;10.00;99.90;;;;;;4996373;28;20026;-86
2023/05/02 06:21:11;;;;;;;8.38;0.73;;;10.10;99.90;;;;;;5011192;28;20072;-86
2023/05/02 06:23:37;;;;;;;4.55;0.77;;;10.10;99.90;;;;;;4990504;28;20066;-86
2023/05/02 06:26:04;;;;;;;11.23;1.50;;;10.20;99.90;;;;;;4992152;28;20461;-85
2023/05/02 06:28:30;;;;;;;6.82;0.75;;;10.30;99.90;;;;;;4996815;28;20026;-86
2023/05/02 06:31:00;;;;;;;7.60;0.90;;;10.30;99.90;;;;;;4995675;28;20041;-85
2023/05/02 06:33:27;;;;;;;12.10;1.25;;;10.30;99.90;;;;;;4996750;28;20053;-86
2023/05/02 06:35:53;;;;;;;10.23;1.30;;;10.40;99.90;;;;;;5014916;28;20017;-86
2023/05/02 06:38:19;;;;;;;9.93;1.00;;;10.50;99.90;;;;;;4996886;28;20034;-85
2023/05/02 06:40:44;;;;;;;12.43;1.33;;;10.70;99.90;;;;;;4996252;28;20037;-85
2023/05/02 06:43:10;;;;;;;8.55;1.13;;;10.70;99.90;;;;;;5013515;28;20226;-85
2023/05/02 06:45:36;;;;;;;11.35;1.63;;;10.70;99.90;;;;;;4999715;28;20112;-85
2023/05/02 06:48:02;;;;;;;12.80;1.63;;;10.80;99.90;;;;;;5002242;28;20521;-86
2023/05/02 06:50:28;;;;;;;13.60;1.30;;;10.80;99.90;;;;;;4998404;28;20064;-85
2023/05/02 06:52:54;;;;;;;9.07;1.42;;;10.80;99.90;;;;;;4996481;28;20025;-86
2023/05/02 06:55:20;;;;;;;14.90;1.58;;;10.90;99.90;;;;;;5001751;28;20041;-87
2023/05/02 06:57:46;;;;;;;8.77;1.20;;;10.90;99.90;;;;;;4992784;28;20050;-86
2023/05/02 07:00:12;;;;;;;9.65;1.60;;;11.00;99.90;;;;;;5005851;28;20102;-85
2023/05/02 07:02:37;;;;;;;7.50;1.00;;;11.00;99.90;;;;;;5015050;28;20037;-86
2023/05/02 07:05:03;;;;;;;7.60;1.10;;;11.10;99.90;;;;;;4998071;28;20034;-86
2023/05/02 07:07:29;;;;;;;12.23;1.13;;;11.20;99.90;;;;;;5032259;28;20026;-86
2023/05/02 07:09:54;;;;;;;12.10;1.67;;;11.20;99.90;;;;;;5005423;28;20110;-86
2023/05/02 07:12:20;;;;;;;8.43;1.15;;;11.20;99.90;;;;;;4995153;28;20036;-86
2023/05/02 07:14:46;;;;;;;9.65;1.30;;;11.20;99.90;;;;;;5014924;28;20022;-86
2023/05/02 07:17:11;;;;;;;9.18;1.33;;;11.20;99.90;;;;;;4991771;28;20028;-86
2023/05/02 07:19:37;;;;;;;11.02;1.50;;;11.30;99.90;;;;;;4995743;28;20197;-86
2023/05/02 07:22:03;;;;;;;17.60;1.42;;;11.30;99.90;;;;;;5026597;28;20054;-86
2023/05/02 07:24:29;;;;;;;8.55;1.15;;;11.40;99.90;;;;;;4987997;28;20049;-86
2023/05/02 07:26:54;;;;;;;5.57;0.70;;;11.50;99.90;;;;;;4987654;28;20113;-86
2023/05/02 07:29:20;;;;;;;10.23;0.80;;;11.50;99.90;;;;;;5007671;28;20058;-86
2023/05/02 07:31:45;;;;;;;14.43;1.13;;;11.60;99.90;;;;;;4998188;28;20033;-86
2023/05/02 07:34:11;;;;;;;4.15;0.70;;;11.70;99.90;;;;;;5014078;28;20108;-86
2023/05/02 07:36:37;;;;;;;8.77;0.80;;;11.80;99.90;;;;;;5007964;28;20063;-87
2023/05/02 07:39:03;;;;;;;8.68;0.85;;;11.80;99.90;;;;;;4995126;28;20091;-87
2023/05/02 07:41:28;;;;;;;9.05;0.80;;;11.80;99.90;;;;;;5008883;28;20443;-87
2023/05/02 07:43:56;;;;;;;6.55;0.80;;;11.80;99.90;;;;;;5015214;28;20026;-85
2023/05/02 07:46:22;;;;;;;7.35;1.30;;;11.80;99.90;;;;;;4990503;28;20027;-85
2023/05/02 07:48:47;;;;;;;9.93;1.25;;;11.90;99.90;;;;;;4991757;28;20125;-85
2023/05/02 07:51:13;;;;;;;4.40;1.10;;;12.00;99.90;;;;;;5008961;28;20065;-85
2023/05/02 07:53:39;;;;;;;7.63;0.68;;;12.00;99.90;;;;;;4991578;28;20025;-85
2023/05/02 07:56:07;;;;;;;4.88;0.57;;;12.00;99.90;;;;;;5015181;28;20057;-85
2023/05/02 07:58:36;;;;;;;5.82;0.60;;;12.00;99.90;;;;;;4986303;28;20050;-84
2023/05/02 08:01:02;;;;;;;5.28;0.52;;;12.00;99.90;;;;;;5000406;28;20092;-85
2023/05/02 08:03:29;;;;;;;3.05;0.50;;;11.90;99.90;;;;;;4994545;28;20034;-85
2023/05/02 08:05:55;;;;;;;7.88;0.60;;;11.90;99.90;;;;;;4998189;28;20022;-85
2023/05/02 08:08:20;;;;;;;4.93;0.60;;;11.90;99.90;;;;;;4998528;28;20118;-84
2023/05/02 08:10:46;;;;;;;6.75;1.13;;;11.90;99.90;;;;;;5003450;28;20041;-84
2023/05/02 08:13:12;;;;;;;6.90;0.50;;;12.00;99.90;;;;;;5013912;28;20079;-86
2023/05/02 08:15:37;;;;;;;6.60;0.70;;;12.10;99.90;;;;;;5002880;28;20056;-85
2023/05/02 08:18:03;;;;;;;4.85;0.57;;;12.10;99.90;;;;;;4990124;28;20037;-85
2023/05/02 08:20:28;;;;;;;5.88;1.20;;;12.10;99.90;;;;;;4997441;28;20041;-85
2023/05/02 08:22:54;;;;;;;4.63;0.60;;;12.00;99.90;;;;;;4992086;28;20096;-85
2023/05/02 08:25:20;;;;;;;7.97;0.77;;;12.00;99.90;;;;;;4993255;28;20102;-85
2023/05/02 08:27:45;;;;;;;4.22;0.88;;;12.00;99.90;;;;;;4997019;28;20026;-85
2023/05/02 08:30:12;;;;;;;5.35;0.50;;;12.00;99.90;;;;;;4996911;28;20025;-85
2023/05/02 08:32:37;;;;;;;4.13;0.60;;;12.00;99.90;;;;;;4997715;28;20034;-85
2023/05/02 08:35:03;;;;;;;6.68;0.70;;;12.00;99.90;;;;;;4995445;28;20113;-85
2023/05/02 08:37:30;;;;;;;6.07;0.98;;;12.00;99.90;;;;;;4995997;28;20054;-85
2023/05/02 08:39:55;;;;;;;8.27;0.80;;;12.00;99.90;;;;;;4993476;28;20026;-85
2023/05/02 08:42:21;;;;;;;10.32;1.20;;;12.00;99.90;;;;;;4995479;28;20037;-85
2023/05/02 08:44:48;;;;;;;10.88;1.40;;;12.00;99.90;;;;;;4992495;28;20554;-85
2023/05/02 08:47:14;;;;;;;5.22;0.50;;;12.10;99.90;;;;;;4995918;28;20041;-85
2023/05/02 08:49:41;;;;;;;6.57;0.70;;;12.20;99.90;;;;;;5012771;28;20026;-85
2023/05/02 08:52:08;;;;;;;7.70;0.70;;;12.30;99.90;;;;;;5028480;28;20026;-86
2023/05/02 08:54:37;;;;;;;7.22;0.60;;;12.30;99.90;;;;;;5012800;28;20105;-85
2023/05/02 08:57:03;;;;;;;6.28;0.75;;;12.30;99.90;;;;;;5013908;28;20041;-85
2023/05/02 08:59:29;;;;;;;4.40;0.60;;;12.30;99.90;;;;;;4998745;28;20038;-85
2023/05/02 09:02:21;;;;;;;9.05;0.70;;;12.30;99.90;;;;;;4998839;28;20041;-85
2023/05/02 09:04:52;;;;;;;4.28;0.60;;;12.40;99.90;;;;;;4996869;28;20025;-85
2023/05/02 09:07:18;;;;;;;9.03;0.67;;;12.50;99.90;;;;;;5007314;28;20089;-85
2023/05/02 09:09:44;;;;;;;9.10;0.93;;;12.70;99.90;;;;;;4995581;28;20022;-85
2023/05/02 09:12:09;;;;;;;5.95;0.60;;;12.80;99.90;;;;;;4982991;28;20029;-86
2023/05/02 09:14:35;;;;;;;3.75;0.47;;;12.80;99.90;;;;;;4999023;28;20064;-86
2023/05/02 09:17:01;;;;;;;7.00;0.57;;;12.80;99.90;;;;;;4978795;28;20026;-86
2023/05/02 09:19:26;;;;;;;7.47;0.50;;;12.80;99.90;;;;;;4996202;28;20025;-86
2023/05/02 09:21:59;;;;;;;6.05;0.50;;;12.80;99.90;;;;;;5001881;28;20033;-86
2023/05/02 09:24:24;;;;;;;;;;;12.70;99.90;;;;;;4983764;28;20018;-86
2023/05/02 09:26:59;;;;;;;3.33;0.45;;;12.80;99.30;;;;;;5006026;28;20009;-86
2023/05/02 09:29:26;;;;;;;1.58;0.32;;;12.80;98.70;;;;;;4998362;28;20026;-86
2023/05/02 09:31:52;;;;;;;3.40;0.30;;;12.90;97.40;;;;;;5002714;28;20364;-86
2023/05/02 09:34:18;;;;;;;2.53;0.40;;;13.00;97.50;;;;;;5020265;28;20033;-85
2023/05/02 09:36:43;;;;;;;4.35;0.95;;;13.10;96.10;;;;;;4998532;28;20050;-85
2023/05/02 09:39:12;;;;;;;3.38;0.70;;;13.10;95.30;;;;;;5010716;28;20022;-86
2023/05/02 09:41:45;;;;;;;5.43;0.60;;;13.10;95.70;;;;;;5016200;28;20038;-85
2023/05/02 09:44:13;;;;;;;5.25;0.60;;;13.20;95.40;;;;;;5010304;28;20022;-85
2023/05/02 09:46:40;;;;;;;3.80;0.60;;;13.10;95.50;;;;;;4993816;28;20111;-85
2023/05/02 09:49:07;;;;;;;4.60;0.60;;;12.90;95.90;;;;;;5015965;28;20430;-85
2023/05/02 09:51:33;;;;;;;4.25;1.02;;;12.90;96.60;;;;;;5011336;28;20022;-85
2023/05/02 09:53:58;;;;;;;4.57;0.60;;;12.90;96.70;;;;;;4992672;28;20072;-86
2023/05/02 09:56:24;;;;;;;5.60;0.60;;;12.90;97.00;;;;;;5014873;28;20052;-85
2023/05/02 09:58:49;;;;;;;3.65;0.70;;;12.90;97.10;;;;;;5034431;28;20053;-85
2023/05/02 10:01:16;;;;;;;6.68;0.65;;;12.90;97.20;;;;;;5015285;28;20052;-85
2023/05/02 10:03:48;;;;;;;4.38;0.60;;;13.00;96.80;;;;;;5021849;28;20040;-85
2023/05/02 10:06:16;;;;;;;5.68;0.88;;;13.10;96.70;;;;;;4997195;28;20030;-85
2023/05/02 10:08:44;;;;;;;7.47;0.82;;;13.10;96.70;;;;;;5002085;28;20391;-85
2023/05/02 10:11:11;;;;;;;6.78;0.63;;;13.10;96.60;;;;;;5013291;28;20076;-85
2023/05/02 10:13:39;;;;;;;6.50;0.70;;;13.10;96.20;;;;;;4997599;28;20030;-85
2023/05/02 10:16:06;;;;;;;4.65;0.90;;;13.20;96.20;;;;;;5017020;28;20029;-85
2023/05/02 10:18:47;;;;;;;6.03;1.05;;;13.20;95.80;;;;;;5017546;28;20041;-84
2023/05/02 10:21:17;;;;;;;6.65;0.73;;;13.30;94.60;;;;;;4987775;28;20038;-86
2023/05/02 10:23:43;;;;;;;4.80;0.52;;;13.40;95.00;;;;;;4996778;28;20018;-86
2023/05/02 10:26:13;;;;;;;2.42;0.50;;;13.60;94.40;;;;;;5000607;28;20035;-85
2023/05/02 10:28:41;;;;;;;6.25;0.52;;;13.60;94.10;;;;;;5017144;28;20368;-85
2023/05/02 10:31:10;;;;;;;7.70;0.85;;;13.60;93.80;;;;;;5024090;28;20025;-86
2023/05/02 10:33:37;;;;;;;3.15;0.50;;;13.70;93.30;;;;;;4998778;28;20061;-85
2023/05/02 10:36:06;;;;;;;5.22;0.60;;;13.70;92.50;;;;;;4997650;28;20026;-85
2023/05/02 10:38:31;;;;;;;12.80;0.73;;;13.90;91.90;;;;;;5008993;28;20029;-85
2023/05/02 10:41:00;;;;;;;3.70;0.70;;;13.90;91.00;;;;;;5001256;28;20033;-85
2023/05/02 10:43:30;;;;;;;5.72;0.55;;;13.90;91.10;;;;;;5015270;28;20182;-85
2023/05/02 10:45:56;;;;;;;6.15;0.52;;;13.90;91.40;;;;;;5029377;28;20037;-85
2023/05/02 10:48:26;;;;;;;4.90;0.60;;;13.80;90.40;;;;;;5000224;28;20084;-85
2023/05/02 10:50:53;;;;;;;3.35;0.60;;;13.80;90.40;;;;;;5017361;28;20067;-85
2023/05/02 10:53:26;;;;;;;2.90;0.50;;;13.90;89.30;;;;;;5009871;28;20091;-85
2023/05/02 10:56:10;;;;;;;7.47;0.60;;;13.90;86.50;;;;;;4999278;28;20049;-85
2023/05/02 10:58:36;;;;;;;3.35;0.70;;;13.80;86.40;;;;;;4990426;28;20092;-85
2023/05/02 11:01:23;;;;;;;4.22;0.57;;;13.70;86.10;;;;;;4996469;28;20050;-86
2023/05/02 11:04:06;;;;;;;5.07;0.90;;;13.70;86.00;;;;;;5006824;28;20028;-86
2023/05/02 11:06:36;;;;;;;;;;;13.70;86.90;;;;;;5000231;28;20026;-85
2023/05/02 11:09:17;;;;;;;5.43;0.70;;;13.90;85.60;;;;;;5022825;28;19910;-85
2023/05/02 11:11:48;;;;;;;9.35;1.60;;;13.80;85.70;;;;;;5008426;28;20044;-84
2023/05/02 11:14:41;;;;;;;4.03;0.63;;;13.60;84.70;;;;;;4997943;28;20084;-85
2023/05/02 11:17:08;;;;;;;3.72;0.52;;;13.40;85.80;;;;;;4997632;28;20033;-85
2023/05/02 11:19:37;;;;;;;4.10;0.60;;;13.30;85.90;;;;;;5000414;28;20032;-85
2023/05/02 11:22:22;;;;;;;4.93;0.63;;;13.50;85.90;;;;;;5019591;28;20034;-85
2023/05/02 11:24:49;;;;;;;5.20;0.68;;;13.70;86.40;;;;;;5009849;28;20424;-86
2023/05/02 11:27:28;;;;;;;7.13;1.15;;;13.90;85.10;;;;;;5007771;28;20038;-86
2023/05/02 11:29:54;;;;;;;6.40;0.70;;;13.80;83.50;;;;;;5000685;28;20038;-86
2023/05/02 11:32:21;;;;;;;3.60;0.60;;;13.60;83.50;;;;;;4994565;28;20022;-86
2023/05/02 11:34:49;;;;;;;6.43;0.70;;;13.40;84.00;;;;;;4996085;28;20458;-86
2023/05/02 11:37:15;;;;;;;3.63;0.63;;;13.30;84.20;;;;;;4994683;28;20026;-86
2023/05/02 11:39:41;;;;;;;5.35;0.80;;;13.40;84.90;;;;;;4992468;28;20085;-87
2023/05/02 11:42:07;;;;;;;5.97;0.60;;;13.50;84.10;;;;;;4995277;28;20034;-86
2023/05/02 11:44:32;;;;;;;6.32;0.70;;;13.60;84.50;;;;;;4994277;28;20122;-85
2023/05/02 11:46:59;;;;;;;7.78;0.95;;;13.60;82.80;;;;;;4983145;28;20474;-85
2023/05/02 11:49:25;;;;;;;8.02;0.90;;;13.60;82.60;;;;;;5000291;28;20482;-85
2023/05/02 11:51:51;;;;;;;5.88;1.00;;;13.70;82.20;;;;;;5013219;28;20029;-85
2023/05/02 11:54:20;;;;;;;4.35;0.85;;;13.70;82.50;;;;;;4996572;28;20026;-86
2023/05/02 11:56:47;;;;;;;4.25;0.65;;;13.70;81.60;;;;;;4989094;28;20056;-85
2023/05/02 11:59:12;;;;;;;6.03;0.65;;;13.80;81.50;;;;;;4992797;28;20070;-85
2023/05/02 12:01:52;;;;;;;4.93;0.70;;;13.90;81.70;;;;;;4992082;28;20123;-85
2023/05/02 12:04:20;;;;;;;5.20;1.05;;;13.90;81.80;;;;;;5008585;28;20033;-85
2023/05/02 12:06:56;;;;;;;4.20;1.67;;;13.90;80.00;;;;;;5006829;28;20029;-85
2023/05/02 12:09:22;;;;;;;5.85;1.20;;;13.90;79.80;;;;;;5009647;28;20057;-84
2023/05/02 12:11:54;;;;;;;5.82;0.70;;;13.90;80.30;;;;;;4990070;28;20060;-85
2023/05/02 12:14:27;;;;;;;;;;;13.90;79.10;;;;;;4988420;28;20089;-85
2023/05/02 12:16:53;;;;;;;8.13;1.10;;;13.80;79.60;;;;;;4987415;28;19910;-85
2023/05/02 12:19:19;;;;;;;5.68;1.38;;;13.70;79.40;;;;;;4986699;28;20482;-85
2023/05/02 12:21:44;;;;;;;3.30;0.90;;;13.70;79.30;;;;;;4986570;28;20034;-86
2023/05/02 12:24:10;;;;;;;3.40;0.80;;;13.80;79.10;;;;;;4988816;28;20025;-85
2023/05/02 12:26:36;;;;;;;10.35;1.08;;;13.70;79.80;;;;;;4983501;28;20026;-85
2023/05/02 12:29:01;;;;;;;5.15;0.80;;;13.80;80.00;;;;;;4994039;28;20603;-86
2023/05/02 12:31:29;;;;;;;3.30;0.75;;;13.80;79.00;;;;;;4990252;28;20018;-86
2023/05/02 12:33:58;;;;;;;11.38;1.27;;;13.70;79.20;;;;;;5009534;28;20039;-86
2023/05/02 12:36:23;;;;;;;3.90;0.77;;;13.70;78.30;;;;;;5001098;28;20057;-85
2023/05/02 12:38:58;;;;;;;4.28;0.93;;;13.70;78.40;;;;;;5007828;28;20450;-85
2023/05/02 12:41:37;;;;;;;4.25;0.68;;;13.70;78.60;;;;;;4994568;28;20565;-85
2023/05/02 12:44:04;;;;;;;2.22;0.60;;;13.80;77.30;;;;;;4995488;28;20030;-85
2023/05/02 12:46:30;;;;;;;7.07;1.00;;;13.80;78.30;;;;;;4996210;28;20033;-86
2023/05/02 12:49:08;;;;;;;5.25;1.17;;;13.90;78.20;;;;;;4995565;28;20022;-85